CYWH

Victoria Harbour Seaplane Base

Victoria, British Columbia, Canada
METAR CYWH 152200Z 21005KT 180V250 8SM SKC 17/12 A2991 RMK FU7 FU SLP129 DENSITY ALT 300FT
Observed Flight Rules
Aug-15 @ 22:00 UTC (26 minutes ago) Visual Flight Rules
Wind Visibility Clouds
210° at 5 knots 8 miles
  • Clear skies
Temperatures Readings
Current 17°C / 63°F
Dewpoint 12°C / 54°F
Humidity 73%
Altimeter 29.91" Hg
Pressure 1012.9 hPa
Elevation 10
METAR CYWH 152200Z 21005KT 180V250 8SM SKC 17/12 A2991 RMK FU7 FU SLP129 DENSITY ALT 300FT
Observed Flight Rules
Aug-15 @ 22:00 UTC
(26 minutes ago)
VFR
Wind Visibility
210° at 5 knots 8 miles
Clouds
  • Clear skies
Temperature Dewpoint
17°C / 63°F 12°C / 54°F
Humidity Altimeter Pressure
73% 29.91" Hg 1012.9 hPa